createdAt,value
2022-07-25T00:00:21.087Z,95.00
2022-07-25T00:05:22.906Z,95.10
2022-07-25T00:10:24.868Z,95.30
2022-07-25T00:15:26.600Z,95.50
2022-07-25T00:20:28.339Z,95.30
2022-07-25T00:25:30.047Z,95.50
2022-07-25T00:30:31.796Z,95.60
2022-07-25T00:35:33.659Z,95.70
2022-07-25T00:40:35.789Z,95.60
2022-07-25T00:45:37.635Z,95.90
2022-07-25T00:50:39.429Z,96.20
2022-07-25T00:55:41.183Z,96.80
2022-07-25T01:00:42.957Z,97.40
2022-07-25T01:05:44.841Z,97.80
2022-07-25T01:10:48.149Z,98.10
2022-07-25T01:15:49.960Z,98.40
2022-07-25T01:20:51.794Z,98.50
2022-07-25T01:25:53.872Z,98.70
2022-07-25T01:30:55.718Z,98.50
2022-07-25T01:35:57.538Z,98.50
2022-07-25T01:40:59.267Z,98.80
2022-07-25T01:46:01.066Z,99.00
2022-07-25T01:51:02.847Z,98.90
2022-07-25T01:56:06.164Z,98.90
2022-07-25T02:01:10.720Z,99.20
2022-07-25T02:06:12.642Z,99.20
2022-07-25T02:11:14.452Z,98.90
2022-07-25T02:16:16.186Z,99.20
2022-07-25T02:21:17.938Z,99.30
2022-07-25T02:26:19.673Z,99.50
2022-07-25T02:31:21.758Z,99.80
2022-07-25T02:36:23.663Z,99.80
2022-07-25T02:41:25.415Z,99.90
2022-07-25T02:46:27.229Z,99.90
2022-07-25T02:51:29.422Z,99.90
2022-07-25T02:56:33.122Z,99.90
2022-07-25T03:01:34.880Z,99.90
2022-07-25T03:06:36.680Z,99.90
2022-07-25T03:11:38.570Z,99.90
2022-07-25T03:16:40.739Z,99.90
2022-07-25T03:21:42.535Z,99.90
2022-07-25T03:26:44.441Z,99.90
2022-07-25T03:31:46.250Z,99.90
2022-07-25T03:36:48.041Z,99.90
2022-07-25T03:41:50.052Z,99.90
2022-07-25T03:46:52.206Z,99.90
2022-07-25T03:51:53.926Z,99.90
2022-07-25T03:56:55.745Z,99.90
2022-07-25T04:01:57.526Z,99.90
2022-07-25T04:06:59.510Z,99.90
2022-07-25T04:12:01.379Z,99.90
2022-07-25T04:17:03.236Z,99.90
2022-07-25T04:22:05.111Z,99.90
2022-07-25T04:27:06.992Z,99.90
2022-07-25T04:32:08.939Z,99.90
2022-07-25T04:37:10.952Z,99.90
2022-07-25T04:42:12.906Z,99.90
2022-07-25T04:47:14.745Z,99.90
2022-07-25T04:52:16.583Z,99.90
2022-07-25T04:57:18.697Z,99.90
2022-07-25T05:02:20.474Z,99.90
2022-07-25T05:07:22.234Z,99.90
2022-07-25T05:12:24.025Z,99.90
2022-07-25T05:17:25.779Z,99.90
2022-07-25T05:22:29.120Z,99.90
2022-07-25T05:27:30.990Z,99.90
2022-07-25T05:32:32.941Z,99.90
2022-07-25T05:37:36.113Z,99.90
2022-07-25T05:42:37.924Z,99.90
2022-07-25T05:47:39.729Z,99.90
2022-07-25T05:52:41.592Z,99.90
2022-07-25T05:57:43.488Z,99.90
2022-07-25T06:02:45.494Z,99.90
2022-07-25T06:07:47.392Z,99.90
2022-07-25T06:12:49.201Z,99.90
2022-07-25T06:17:51.244Z,99.90
2022-07-25T06:22:53.158Z,99.80
2022-07-25T06:27:54.929Z,99.80
2022-07-25T06:32:56.739Z,99.40
2022-07-25T06:37:59.090Z,98.90
2022-07-25T06:43:00.869Z,98.60
2022-07-25T06:48:02.802Z,97.80
2022-07-25T06:53:04.580Z,96.60
2022-07-25T06:58:06.383Z,96.10
2022-07-25T07:03:08.348Z,96.30
2022-07-25T07:08:10.165Z,96.20
2022-07-25T07:13:14.068Z,96.50
2022-07-25T07:18:19.901Z,96.20
2022-07-25T07:23:21.676Z,96.10
2022-07-25T07:28:23.540Z,96.00
2022-07-25T07:33:25.365Z,95.80
2022-07-25T07:38:27.683Z,96.40
2022-07-25T07:43:31.775Z,95.40
2022-07-25T07:48:33.943Z,95.10
2022-07-25T07:53:54.294Z,95.00
2022-07-25T07:58:56.118Z,94.50
2022-07-25T08:03:57.992Z,94.50
2022-07-25T08:08:59.779Z,94.10
2022-07-25T08:14:01.791Z,94.20
2022-07-25T08:19:03.805Z,93.90
2022-07-25T08:24:07.029Z,93.10
2022-07-25T08:29:19.421Z,93.20
2022-07-25T08:34:22.599Z,92.90
2022-07-25T08:39:24.440Z,92.60
2022-07-25T08:44:32.241Z,92.50
2022-07-25T08:49:35.497Z,92.30
2022-07-25T08:54:37.531Z,92.30
2022-07-25T08:59:39.297Z,91.90
2022-07-25T09:04:43.398Z,91.40
2022-07-25T09:09:45.225Z,91.50
2022-07-25T09:14:48.737Z,91.50
2022-07-25T09:19:57.710Z,91.30
2022-07-25T09:24:59.536Z,90.60
2022-07-25T09:30:01.344Z,90.30
2022-07-25T09:35:03.275Z,90.10
2022-07-25T09:40:15.625Z,90.20
2022-07-25T09:45:17.396Z,90.40
2022-07-25T09:50:20.633Z,90.40
2022-07-25T09:55:24.813Z,90.10
2022-07-25T10:00:29.045Z,90.00
2022-07-25T10:06:15.775Z,89.40
2022-07-25T10:11:25.637Z,87.30
2022-07-25T10:16:27.849Z,86.70
2022-07-25T10:21:29.732Z,86.20
2022-07-25T10:26:32.300Z,85.00
2022-07-25T10:31:37.000Z,85.20
2022-07-25T10:36:51.164Z,84.40
2022-07-25T10:42:02.832Z,84.00
2022-07-25T10:47:11.477Z,80.60
2022-07-25T10:52:17.775Z,79.10
2022-07-25T10:57:19.646Z,77.40
2022-07-25T11:02:24.389Z,77.10
2022-07-25T11:07:28.638Z,77.10
2022-07-25T11:12:31.237Z,76.30
2022-07-25T11:17:34.330Z,74.30
2022-07-25T11:22:36.779Z,74.20
2022-07-25T11:27:38.639Z,73.40
2022-07-25T11:32:54.073Z,71.60
2022-07-25T11:37:57.171Z,71.80
2022-07-25T11:42:59.791Z,68.50
2022-07-25T11:48:08.869Z,67.50
2022-07-25T11:53:14.730Z,66.90
2022-07-25T11:58:17.904Z,65.20
2022-07-25T12:03:23.406Z,65.10
2022-07-25T12:08:25.506Z,64.60
2022-07-25T12:13:29.746Z,65.50
2022-07-25T12:18:31.569Z,64.20
2022-07-25T12:23:34.429Z,63.80
2022-07-25T12:28:36.265Z,60.30
2022-07-25T12:33:38.345Z,60.00
2022-07-25T12:38:40.286Z,59.50
2022-07-25T12:43:42.391Z,60.30
2022-07-25T12:48:44.251Z,58.00
2022-07-25T12:53:46.952Z,56.40
2022-07-25T12:58:50.379Z,56.90
2022-07-25T13:03:52.177Z,55.40
2022-07-25T13:08:53.969Z,54.30
2022-07-25T13:13:55.768Z,54.30
2022-07-25T13:18:57.564Z,52.20
2022-07-25T13:23:59.397Z,50.90
2022-07-25T13:29:01.891Z,50.80
2022-07-25T13:34:03.792Z,50.70
2022-07-25T13:39:06.660Z,49.70
2022-07-25T13:44:09.078Z,50.70
2022-07-25T13:49:13.977Z,48.70
2022-07-25T13:54:15.891Z,49.00
2022-07-25T13:59:21.518Z,49.10
2022-07-25T14:04:23.808Z,48.10
2022-07-25T14:09:25.596Z,47.00
2022-07-25T14:14:27.356Z,45.40
2022-07-25T14:19:29.171Z,44.70
2022-07-25T14:24:31.013Z,44.40
2022-07-25T14:29:33.229Z,43.10
2022-07-25T14:34:35.629Z,42.70
2022-07-25T14:39:37.540Z,42.70
2022-07-25T14:44:41.517Z,41.70
2022-07-25T14:49:45.604Z,41.70
2022-07-25T14:54:47.403Z,41.70
2022-07-25T14:59:49.224Z,40.40
2022-07-25T15:04:51.101Z,40.50
2022-07-25T15:09:52.957Z,42.80
2022-07-25T15:14:54.851Z,43.10
2022-07-25T15:19:56.710Z,43.60
2022-07-25T15:25:29.773Z,44.90
2022-07-25T15:30:21.340Z,44.60
2022-07-25T15:35:25.429Z,45.00
2022-07-25T15:40:27.476Z,44.70
2022-07-25T15:45:33.119Z,44.30
2022-07-25T15:50:37.064Z,44.80
2022-07-25T15:55:40.686Z,45.80
2022-07-25T16:00:42.816Z,45.60
2022-07-25T16:05:45.085Z,46.20
2022-07-25T16:10:46.841Z,45.10
2022-07-25T16:15:48.657Z,44.70
2022-07-25T16:20:50.516Z,45.60
2022-07-25T16:25:52.564Z,45.40
2022-07-25T16:30:54.485Z,44.90
2022-07-25T16:35:57.298Z,45.00
2022-07-25T16:40:59.524Z,45.80
2022-07-25T16:46:02.114Z,46.70
2022-07-25T16:51:04.626Z,46.60
2022-07-25T16:56:06.857Z,46.50
2022-07-25T17:01:08.750Z,46.70
2022-07-25T17:06:10.713Z,51.90
2022-07-25T17:11:12.688Z,64.40
2022-07-25T17:16:14.639Z,70.00
2022-07-25T17:21:18.299Z,74.70
2022-07-25T17:26:20.925Z,76.70
2022-07-25T17:31:24.271Z,79.00
2022-07-25T17:36:26.265Z,87.90
2022-07-25T17:41:28.022Z,99.90
2022-07-25T17:46:29.932Z,99.90
2022-07-25T17:51:32.066Z,99.90
2022-07-25T17:56:33.956Z,99.90
2022-07-25T18:01:35.808Z,99.90
2022-07-25T18:06:37.677Z,99.90
2022-07-25T18:11:40.483Z,99.90
2022-07-25T18:16:45.351Z,99.90
2022-07-25T18:21:47.738Z,99.90
2022-07-25T18:26:49.659Z,99.90
2022-07-25T18:31:51.470Z,99.90
2022-07-25T18:36:53.319Z,99.90
2022-07-25T18:41:55.105Z,99.90
2022-07-25T18:46:56.887Z,99.90
2022-07-25T18:51:59.370Z,99.90
2022-07-25T18:57:01.151Z,99.90
2022-07-25T19:02:03.345Z,99.90
2022-07-25T19:07:05.320Z,99.90
2022-07-25T19:12:07.829Z,99.90
2022-07-25T19:17:09.666Z,99.90
2022-07-25T19:22:11.582Z,99.90
2022-07-25T19:27:13.416Z,99.90
2022-07-25T19:32:17.968Z,99.90
2022-07-25T19:37:20.146Z,99.90
2022-07-25T19:42:22.058Z,99.90
2022-07-25T19:47:23.858Z,99.90
2022-07-25T19:52:25.805Z,99.90
2022-07-25T19:57:28.066Z,99.90
2022-07-25T20:02:29.874Z,99.90
2022-07-25T20:07:31.739Z,99.90
2022-07-25T20:12:34.962Z,99.90
2022-07-25T20:17:36.766Z,99.90
2022-07-25T20:22:38.644Z,99.90
2022-07-25T20:27:40.590Z,99.90
2022-07-25T20:32:42.497Z,99.90
2022-07-25T20:37:44.486Z,99.90
2022-07-25T20:42:46.641Z,99.90
2022-07-25T20:47:48.622Z,99.90
2022-07-25T20:52:50.824Z,99.90
2022-07-25T20:57:52.615Z,99.90
2022-07-25T21:02:55.317Z,99.90
2022-07-25T21:07:58.281Z,99.90
2022-07-25T21:13:00.053Z,99.90
2022-07-25T21:18:01.976Z,99.90
2022-07-25T21:23:04.508Z,99.90
2022-07-25T21:28:06.607Z,99.90
2022-07-25T21:33:14.295Z,99.90
2022-07-25T21:38:26.712Z,99.90
2022-07-25T21:43:30.101Z,99.90
2022-07-25T21:48:50.324Z,99.90
2022-07-25T21:53:52.787Z,99.90
2022-07-25T21:58:54.671Z,99.90
2022-07-25T22:03:56.511Z,99.90
2022-07-25T22:08:58.354Z,99.90
2022-07-25T22:14:00.202Z,99.90
2022-07-25T22:19:02.235Z,99.90
2022-07-25T22:24:04.322Z,99.90
2022-07-25T22:29:06.366Z,99.90
2022-07-25T22:34:08.565Z,99.90
2022-07-25T22:39:11.150Z,99.90
2022-07-25T22:44:13.425Z,99.90
2022-07-25T22:49:15.282Z,99.90
2022-07-25T22:54:17.382Z,99.90
2022-07-25T22:59:19.348Z,99.90
2022-07-25T23:04:21.268Z,99.90
2022-07-25T23:09:23.520Z,99.90
2022-07-25T23:14:25.363Z,99.90
2022-07-25T23:19:27.252Z,99.90
2022-07-25T23:24:29.060Z,99.90
2022-07-25T23:29:30.973Z,99.90
2022-07-25T23:34:33.360Z,99.90
2022-07-25T23:39:35.837Z,99.90
2022-07-25T23:44:38.022Z,99.90
2022-07-25T23:49:39.881Z,99.90
2022-07-25T23:54:41.814Z,99.90
2022-07-25T23:59:43.658Z,99.90
